Bluewater, New Mexico
Current Conditions -  °F | °C
As of 8:36 AM on Thursday 30 Oct 2014 (Local Time) from KGNT Reporting Station
Clear Clear  
Wind Chill: 26°   Ceiling: Unl
Heat Index: 34°   Visibility: 10mi
Dew Point: 12°   Wind: 10mph
Humidity: 41%   Direction: 300°WNW
Pressure: 30.41"   Gusts: 17mph
Location:  35.26°N, 107.99°W
Report Text: KGNT 301436Z AUTO 30009G15KT 10SM CLR 01/M11 A3041 RMK AO2
Loading
Personal Weather Stations






























Interactive Weather Map
Tropical Storm Tracking
New forecast layout! Learn more

10-Day Weather Forecast

Advertisements
Track Severe Weather on mobile